createdAt,value
2022-12-17T00:00:48.167Z,-6.00
2022-12-17T00:03:36.036Z,-5.90
2022-12-17T00:06:22.313Z,-5.90
2022-12-17T00:09:08.174Z,-5.90
2022-12-17T00:11:54.573Z,-5.90
2022-12-17T00:14:42.034Z,-5.90
2022-12-17T00:17:28.118Z,-6.00
2022-12-17T00:20:15.483Z,-6.00
2022-12-17T00:23:01.557Z,-6.00
2022-12-17T00:25:47.394Z,-6.00
2022-12-17T00:28:33.557Z,-6.00
2022-12-17T00:31:19.559Z,-6.00
2022-12-17T00:34:05.745Z,-6.00
2022-12-17T00:36:53.204Z,-6.00
2022-12-17T00:39:41.334Z,-6.10
2022-12-17T00:42:27.641Z,-6.10
2022-12-17T00:45:13.513Z,-6.10
2022-12-17T00:47:59.373Z,-6.10
2022-12-17T00:50:45.364Z,-6.00
2022-12-17T00:53:33.069Z,-5.90
2022-12-17T00:56:19.138Z,-5.90
2022-12-17T00:59:05.065Z,-5.70
2022-12-17T01:01:51.052Z,-5.60
2022-12-17T01:04:38.083Z,-5.60
2022-12-17T01:07:24.138Z,-5.70
2022-12-17T01:10:11.497Z,-5.90
2022-12-17T01:12:57.443Z,-5.90
2022-12-17T01:15:43.621Z,-6.00
2022-12-17T01:18:36.936Z,-6.00
2022-12-17T01:21:22.974Z,-6.10
2022-12-17T01:24:09.053Z,-6.10
2022-12-17T01:26:57.594Z,-6.00
2022-12-17T01:29:43.410Z,-6.10
2022-12-17T01:32:29.623Z,-6.10
2022-12-17T01:35:15.553Z,-6.10
2022-12-17T01:38:01.566Z,-6.20
2022-12-17T01:40:47.668Z,-6.30
2022-12-17T01:43:53.342Z,-6.30
2022-12-17T01:46:48.595Z,-6.30
2022-12-17T01:49:34.458Z,-6.30
2022-12-17T01:52:33.744Z,-6.30
2022-12-17T01:55:19.983Z,-6.30
2022-12-17T01:58:05.752Z,-6.30
2022-12-17T02:00:53.628Z,-6.10
2022-12-17T02:03:39.795Z,-6.10
2022-12-17T02:06:33.706Z,-6.10
2022-12-17T02:09:26.752Z,-6.00
2022-12-17T02:12:28.648Z,-6.00
2022-12-17T02:15:21.968Z,-6.00
2022-12-17T02:18:13.739Z,-6.00
2022-12-17T02:21:06.793Z,-6.00
2022-12-17T02:24:02.067Z,-6.00
2022-12-17T02:26:56.423Z,-6.00
2022-12-17T02:29:44.963Z,-6.10
2022-12-17T02:32:33.735Z,-6.10
2022-12-17T02:35:21.703Z,-6.10
2022-12-17T02:38:08.259Z,-6.10
2022-12-17T02:40:56.906Z,-6.20
2022-12-17T02:43:45.208Z,-6.20
2022-12-17T02:46:31.987Z,-6.20
2022-12-17T02:49:26.094Z,-6.30
2022-12-17T02:52:13.493Z,-6.30
2022-12-17T02:54:59.305Z,-6.40
2022-12-17T02:57:47.471Z,-6.50
2022-12-17T03:00:38.203Z,-6.50
2022-12-17T03:03:24.058Z,-6.50
2022-12-17T03:06:10.033Z,-6.40
2022-12-17T03:08:56.133Z,-6.40
2022-12-17T03:11:46.329Z,-6.50
2022-12-17T03:14:32.453Z,-6.50
2022-12-17T03:17:20.143Z,-6.50
2022-12-17T03:20:05.358Z,-6.50
2022-12-17T03:22:59.903Z,-6.50
2022-12-17T03:25:57.263Z,-6.30
2022-12-17T03:28:42.823Z,-6.10
2022-12-17T03:31:28.816Z,-6.10
2022-12-17T03:34:16.403Z,-6.20
2022-12-17T03:37:02.174Z,-6.10
2022-12-17T03:39:48.265Z,-6.10
2022-12-17T03:42:34.092Z,-6.20
2022-12-17T03:45:19.969Z,-6.20
2022-12-17T03:48:05.767Z,-6.20
2022-12-17T03:50:53.014Z,-6.20
2022-12-17T03:53:39.153Z,-6.10
2022-12-17T03:56:25.823Z,-6.10
2022-12-17T03:59:11.547Z,-6.00
2022-12-17T04:01:57.773Z,-6.00
2022-12-17T04:04:43.747Z,-6.00
2022-12-17T04:07:31.107Z,-6.00
2022-12-17T04:10:16.975Z,-5.90
2022-12-17T04:13:02.649Z,-5.90
2022-12-17T04:15:48.726Z,-5.90
2022-12-17T04:18:34.857Z,-5.90
2022-12-17T04:21:20.387Z,-5.80
2022-12-17T04:24:07.617Z,-5.70
2022-12-17T04:26:53.877Z,-5.70
2022-12-17T04:29:42.398Z,-5.70
2022-12-17T04:32:33.646Z,-5.70
2022-12-17T04:35:20.628Z,-5.70
2022-12-17T04:38:06.656Z,-5.70
2022-12-17T04:40:54.098Z,-5.60
2022-12-17T04:43:45.585Z,-5.70
2022-12-17T04:46:40.019Z,-5.60
2022-12-17T04:49:26.149Z,-5.60
2022-12-17T04:52:11.968Z,-5.60
2022-12-17T04:54:57.797Z,-5.60
2022-12-17T04:57:45.336Z,-5.50
2022-12-17T05:00:32.557Z,-5.60
2022-12-17T05:03:24.384Z,-5.60
2022-12-17T05:06:10.516Z,-5.60
2022-12-17T05:08:56.398Z,-5.60
2022-12-17T05:11:42.336Z,-5.50
2022-12-17T05:14:29.827Z,-5.50
2022-12-17T05:17:15.849Z,-5.50
2022-12-17T05:20:01.797Z,-5.50
2022-12-17T05:22:47.757Z,-5.50
2022-12-17T05:25:34.088Z,-5.40
2022-12-17T05:28:20.245Z,-5.40
2022-12-17T05:31:12.449Z,-5.30
2022-12-17T05:33:58.407Z,-5.20
2022-12-17T05:36:45.047Z,-5.20
2022-12-17T05:39:30.943Z,-5.10
2022-12-17T05:42:16.856Z,-5.10
2022-12-17T05:45:02.997Z,-5.10
2022-12-17T05:47:50.216Z,-5.10
2022-12-17T05:50:36.149Z,-5.10
2022-12-17T05:53:22.496Z,-5.00
2022-12-17T05:56:08.754Z,-4.90
2022-12-17T05:58:54.738Z,-4.90
2022-12-17T06:01:49.275Z,-4.90
2022-12-17T06:04:36.386Z,-4.90
2022-12-17T06:07:22.438Z,-4.90
2022-12-17T06:10:08.146Z,-4.90
2022-12-17T06:12:53.957Z,-4.90
2022-12-17T06:15:39.789Z,-4.80
2022-12-17T06:18:25.777Z,-4.80
2022-12-17T06:21:13.506Z,-4.80
2022-12-17T06:23:59.387Z,-4.80
2022-12-17T06:26:45.359Z,-4.70
2022-12-17T06:29:31.596Z,-4.70
2022-12-17T06:32:17.398Z,-4.60
2022-12-17T06:35:03.319Z,-4.50
2022-12-17T06:37:50.548Z,-4.40
2022-12-17T06:40:36.826Z,-4.40
2022-12-17T06:43:22.836Z,-4.40
2022-12-17T06:46:10.937Z,-4.40
2022-12-17T06:48:56.888Z,-4.30
2022-12-17T06:51:42.701Z,-4.40
2022-12-17T06:54:29.966Z,-4.40
2022-12-17T06:57:15.738Z,-4.30
2022-12-17T07:00:01.834Z,-4.30
2022-12-17T07:02:47.759Z,-4.30
2022-12-17T07:05:33.941Z,-4.20
2022-12-17T07:08:20.087Z,-4.20
2022-12-17T07:11:07.287Z,-4.20
2022-12-17T07:13:53.398Z,-4.20
2022-12-17T07:16:39.406Z,-4.20
2022-12-17T07:19:27.506Z,-4.20
2022-12-17T07:22:14.636Z,-4.20
2022-12-17T07:25:00.320Z,-4.20
2022-12-17T07:27:47.786Z,-4.20
2022-12-17T07:30:33.687Z,-4.20
2022-12-17T07:33:20.933Z,-4.10
2022-12-17T07:36:06.676Z,-4.00
2022-12-17T07:38:52.724Z,-4.00
2022-12-17T07:41:38.921Z,-4.10
2022-12-17T07:44:26.297Z,-4.10
2022-12-17T07:47:12.427Z,-4.10
2022-12-17T07:49:58.268Z,-4.10
2022-12-17T07:52:44.217Z,-4.10
2022-12-17T07:55:30.291Z,-4.00
2022-12-17T07:58:20.417Z,-4.00
2022-12-17T08:01:07.837Z,-4.00
2022-12-17T08:03:53.948Z,-3.90
2022-12-17T08:06:39.868Z,-3.80
2022-12-17T08:09:27.897Z,-3.80
2022-12-17T08:12:13.999Z,-3.80
2022-12-17T08:15:00.180Z,-3.80
2022-12-17T08:17:47.747Z,-3.80
2022-12-17T08:20:33.817Z,-3.70
2022-12-17T08:23:20.647Z,-3.60
2022-12-17T08:26:06.757Z,-3.60
2022-12-17T08:28:52.676Z,-3.60
2022-12-17T08:31:39.188Z,-3.50
2022-12-17T08:34:26.656Z,-3.60
2022-12-17T08:37:12.904Z,-3.60
2022-12-17T08:39:59.040Z,-3.60
2022-12-17T08:42:44.555Z,-3.60
2022-12-17T08:45:35.835Z,-3.60
2022-12-17T08:48:23.577Z,-3.60
2022-12-17T08:51:11.511Z,-3.60
2022-12-17T08:53:57.196Z,-3.60
2022-12-17T08:56:43.628Z,-3.60
2022-12-17T08:59:29.457Z,-3.50
2022-12-17T09:02:15.617Z,-3.50
2022-12-17T09:05:01.739Z,-3.60
2022-12-17T09:07:48.768Z,-3.50
2022-12-17T09:10:34.979Z,-3.50
2022-12-17T09:13:21.037Z,-3.50
2022-12-17T09:16:13.319Z,-3.40
2022-12-17T09:18:59.678Z,-3.40
2022-12-17T09:21:47.150Z,-3.40
2022-12-17T09:24:35.159Z,-3.30
2022-12-17T09:27:20.837Z,-3.20
2022-12-17T09:30:06.649Z,-3.20
2022-12-17T09:32:52.695Z,-3.00
2022-12-17T09:35:45.983Z,-2.90
2022-12-17T09:38:36.811Z,-2.80
2022-12-17T09:41:37.707Z,-2.70
2022-12-17T09:44:43.524Z,-2.70
2022-12-17T09:47:41.328Z,-2.70
2022-12-17T09:50:31.581Z,-2.70
2022-12-17T09:53:19.850Z,-2.70
2022-12-17T09:56:08.757Z,-2.80
2022-12-17T09:58:59.083Z,-2.90
2022-12-17T10:01:51.430Z,-2.80
2022-12-17T10:04:43.615Z,-2.70
2022-12-17T10:07:36.021Z,-2.50
2022-12-17T10:10:33.580Z,-2.40
2022-12-17T10:13:19.832Z,-2.30
2022-12-17T10:16:07.507Z,-2.40
2022-12-17T10:18:53.817Z,-2.40
2022-12-17T10:21:42.846Z,-2.30
2022-12-17T10:24:47.897Z,-2.30
2022-12-17T10:27:55.207Z,-2.10
2022-12-17T10:30:41.408Z,-2.00
2022-12-17T10:33:36.471Z,-2.10
2022-12-17T10:36:23.808Z,-2.10
2022-12-17T10:39:33.776Z,-2.10
2022-12-17T10:42:21.403Z,-2.20
2022-12-17T10:45:08.021Z,-2.30
2022-12-17T10:48:02.248Z,-2.40
2022-12-17T10:50:59.611Z,-2.30
2022-12-17T10:53:54.131Z,-2.30
2022-12-17T10:56:46.549Z,-2.20
2022-12-17T10:59:43.896Z,-2.20
2022-12-17T11:02:35.925Z,-2.20
2022-12-17T11:05:22.918Z,-2.30
2022-12-17T11:08:10.669Z,-2.30
2022-12-17T11:11:01.818Z,-2.20
2022-12-17T11:13:51.555Z,-2.20
2022-12-17T11:16:42.670Z,-2.10
2022-12-17T11:19:48.248Z,-2.10
2022-12-17T11:22:42.547Z,-2.00
2022-12-17T11:25:45.437Z,-1.90
2022-12-17T11:28:37.400Z,-1.90
2022-12-17T11:31:48.348Z,-1.90
2022-12-17T11:34:47.079Z,-1.90
2022-12-17T11:37:37.161Z,-2.00
2022-12-17T11:40:38.688Z,-2.00
2022-12-17T11:43:33.982Z,-2.10
2022-12-17T11:46:34.645Z,-2.10
2022-12-17T11:49:29.867Z,-2.10
2022-12-17T11:52:22.739Z,-2.00
2022-12-17T11:55:17.156Z,-1.90
2022-12-17T11:58:10.592Z,-2.00
2022-12-17T12:01:10.109Z,-1.90
2022-12-17T12:04:08.059Z,-1.70
2022-12-17T12:07:02.994Z,-1.80
2022-12-17T12:09:57.862Z,-1.70
2022-12-17T12:12:59.130Z,-1.70
2022-12-17T12:15:55.089Z,-1.60
2022-12-17T12:18:49.501Z,-1.70
2022-12-17T12:21:50.238Z,-1.60
2022-12-17T12:24:49.964Z,-1.50
2022-12-17T12:27:42.946Z,-1.50
2022-12-17T12:30:34.383Z,-1.50
2022-12-17T12:33:37.028Z,-1.40
2022-12-17T12:36:27.717Z,-1.30
2022-12-17T12:39:15.995Z,-1.30
2022-12-17T12:42:10.674Z,-1.50
2022-12-17T12:45:05.942Z,-1.50
2022-12-17T12:48:02.032Z,-1.50
2022-12-17T12:51:01.179Z,-1.60
2022-12-17T12:53:47.811Z,-1.70
2022-12-17T12:56:46.348Z,-1.60
2022-12-17T12:59:44.373Z,-1.50
2022-12-17T13:02:58.161Z,-1.50
2022-12-17T13:05:34.441Z,-1.40
2022-12-17T13:08:17.486Z,-1.40
2022-12-17T13:10:46.058Z,-1.40
2022-12-17T13:13:36.332Z,-1.40
2022-12-17T13:16:21.379Z,-1.40
2022-12-17T13:18:50.905Z,-1.30
2022-12-17T13:21:30.307Z,-1.20
2022-12-17T13:24:11.796Z,-1.20
2022-12-17T13:26:47.535Z,-1.40
2022-12-17T13:29:26.114Z,-1.40
2022-12-17T13:32:21.072Z,-1.30
2022-12-17T13:35:10.340Z,-1.30
2022-12-17T13:37:49.153Z,-1.50
2022-12-17T13:40:33.724Z,-1.50
2022-12-17T13:43:04.239Z,-1.40
2022-12-17T13:45:41.262Z,-1.40
2022-12-17T13:48:23.945Z,-1.40
2022-12-17T13:50:59.773Z,-1.50
2022-12-17T13:53:40.991Z,-1.60
2022-12-17T13:56:12.455Z,-1.60
2022-12-17T13:58:43.386Z,-1.60
2022-12-17T14:01:16.447Z,-1.60
2022-12-17T14:04:07.695Z,-1.60
2022-12-17T14:06:42.403Z,-1.60
2022-12-17T14:09:18.823Z,-1.60
2022-12-17T14:12:07.615Z,-1.60
2022-12-17T14:14:39.449Z,-1.70
2022-12-17T14:17:16.819Z,-1.70
2022-12-17T14:19:46.512Z,-1.70
2022-12-17T14:22:23.286Z,-1.70
2022-12-17T14:24:54.239Z,-1.80
2022-12-17T14:27:33.011Z,-1.80
2022-12-17T14:30:03.027Z,-1.80
2022-12-17T14:32:36.484Z,-1.70
2022-12-17T14:35:06.057Z,-1.70
2022-12-17T14:37:35.768Z,-1.80
2022-12-17T14:40:07.318Z,-1.80
2022-12-17T14:42:40.101Z,-1.80
2022-12-17T14:45:28.150Z,-1.90
2022-12-17T14:47:59.234Z,-1.90
2022-12-17T14:50:34.475Z,-1.90
2022-12-17T14:53:05.699Z,-2.00
2022-12-17T14:55:37.680Z,-2.00
2022-12-17T14:58:18.612Z,-2.00
2022-12-17T15:00:50.561Z,-2.00
2022-12-17T15:03:25.958Z,-1.90
2022-12-17T15:05:59.098Z,-2.00
2022-12-17T15:08:30.894Z,-2.00
2022-12-17T15:10:59.795Z,-2.00
2022-12-17T15:13:29.982Z,-2.00
2022-12-17T15:15:59.322Z,-2.00
2022-12-17T15:18:28.461Z,-2.00
2022-12-17T15:20:57.375Z,-2.00
2022-12-17T15:23:26.707Z,-2.00
2022-12-17T15:25:56.655Z,-2.10
2022-12-17T15:28:30.338Z,-2.10
2022-12-17T15:30:59.194Z,-2.00
2022-12-17T15:33:27.997Z,-2.10
2022-12-17T15:35:58.941Z,-2.00
2022-12-17T15:38:27.708Z,-2.10
2022-12-17T15:40:56.740Z,-2.10
2022-12-17T15:43:25.151Z,-2.10
2022-12-17T15:45:55.536Z,-2.10
2022-12-17T15:48:25.127Z,-2.10
2022-12-17T15:50:54.257Z,-2.10
2022-12-17T15:53:23.167Z,-2.10
2022-12-17T15:55:52.081Z,-2.10
2022-12-17T15:58:20.712Z,-2.10
2022-12-17T16:00:49.184Z,-2.10
2022-12-17T16:03:19.952Z,-2.10
2022-12-17T16:05:48.547Z,-2.10
2022-12-17T16:08:17.729Z,-2.10
2022-12-17T16:10:47.163Z,-2.20
2022-12-17T16:13:16.693Z,-2.20
2022-12-17T16:16:00.838Z,-2.20
2022-12-17T16:18:34.555Z,-2.20
2022-12-17T16:21:04.564Z,-2.20
2022-12-17T16:23:33.833Z,-2.20
2022-12-17T16:26:05.160Z,-2.20
2022-12-17T16:28:34.561Z,-2.30
2022-12-17T16:31:05.861Z,-2.20
2022-12-17T16:33:37.553Z,-2.20
2022-12-17T16:36:08.026Z,-2.20
2022-12-17T16:38:37.604Z,-2.20
2022-12-17T16:41:06.687Z,-2.30
2022-12-17T16:43:36.155Z,-2.30
2022-12-17T16:46:10.668Z,-2.30
2022-12-17T16:48:42.372Z,-2.30
2022-12-17T16:51:25.887Z,-2.30
2022-12-17T16:53:57.698Z,-2.30
2022-12-17T16:56:29.747Z,-2.40
2022-12-17T16:58:59.817Z,-2.40
2022-12-17T17:01:30.526Z,-2.40
2022-12-17T17:04:01.053Z,-2.40
2022-12-17T17:06:33.562Z,-2.40
2022-12-17T17:09:05.249Z,-2.40
2022-12-17T17:11:34.360Z,-2.40
2022-12-17T17:14:02.916Z,-2.40
2022-12-17T17:16:31.708Z,-2.40
2022-12-17T17:19:02.686Z,-2.40
2022-12-17T17:21:34.617Z,-2.40
2022-12-17T17:24:04.677Z,-2.40
2022-12-17T17:26:35.978Z,-2.40
2022-12-17T17:29:06.004Z,-2.40
2022-12-17T17:32:08.516Z,-2.40
2022-12-17T17:34:26.395Z,-2.40
2022-12-17T17:36:55.427Z,-2.40
2022-12-17T17:39:24.247Z,-2.40
2022-12-17T17:41:53.035Z,-2.50
2022-12-17T17:44:21.708Z,-2.50
2022-12-17T17:46:50.598Z,-2.50
2022-12-17T17:49:19.553Z,-2.50
2022-12-17T17:54:39.626Z,-2.50
2022-12-17T17:57:09.108Z,-2.60
2022-12-17T17:59:39.573Z,-2.50
2022-12-17T18:02:09.122Z,-2.50
2022-12-17T18:04:37.908Z,-2.50
2022-12-17T18:07:24.839Z,-2.50
2022-12-17T18:09:54.659Z,-2.50
2022-12-17T18:12:41.303Z,-2.50
2022-12-17T18:15:15.789Z,-2.50
2022-12-17T18:17:45.135Z,-2.60
2022-12-17T18:20:14.444Z,-2.60
2022-12-17T18:22:46.299Z,-2.60
2022-12-17T18:25:18.982Z,-2.60
2022-12-17T18:27:47.751Z,-2.60
2022-12-17T18:30:17.535Z,-2.60
2022-12-17T18:32:46.756Z,-2.70
2022-12-17T18:35:15.792Z,-2.60
2022-12-17T18:37:46.061Z,-2.60
2022-12-17T18:40:15.682Z,-2.50
2022-12-17T18:43:01.488Z,-2.60
2022-12-17T18:45:30.096Z,-2.60
2022-12-17T18:47:58.884Z,-2.60
2022-12-17T18:50:27.758Z,-2.60
2022-12-17T18:52:58.417Z,-2.60
2022-12-17T18:55:27.073Z,-2.50
2022-12-17T18:57:55.870Z,-2.50
2022-12-17T19:00:24.666Z,-2.50
2022-12-17T19:02:54.104Z,-2.50
2022-12-17T19:05:22.965Z,-2.50
2022-12-17T19:07:51.567Z,-2.50
2022-12-17T19:10:21.558Z,-2.50
2022-12-17T19:12:50.799Z,-2.60
2022-12-17T19:15:19.576Z,-2.60
2022-12-17T19:17:51.183Z,-2.70
2022-12-17T19:20:20.989Z,-2.70
2022-12-17T19:22:49.570Z,-2.70
2022-12-17T19:25:18.462Z,-2.70
2022-12-17T19:27:48.706Z,-2.70
2022-12-17T19:30:18.503Z,-2.80
2022-12-17T19:32:47.231Z,-2.90
2022-12-17T19:35:15.945Z,-2.90
2022-12-17T19:37:44.996Z,-3.00
2022-12-17T19:40:14.847Z,-3.00
2022-12-17T19:42:43.670Z,-3.10
2022-12-17T19:45:13.990Z,-3.10
2022-12-17T19:47:42.623Z,-3.10
2022-12-17T19:50:12.538Z,-3.20
2022-12-17T19:52:41.066Z,-3.20
2022-12-17T19:55:10.498Z,-3.30
2022-12-17T19:57:39.645Z,-3.40
2022-12-17T20:00:09.754Z,-3.50
2022-12-17T20:02:40.130Z,-3.70
2022-12-17T20:05:10.067Z,-3.80
2022-12-17T20:07:39.159Z,-3.90
2022-12-17T20:10:08.813Z,-4.00
2022-12-17T20:12:37.537Z,-4.20
2022-12-17T20:15:06.929Z,-4.30
2022-12-17T20:17:35.464Z,-4.40
2022-12-17T20:20:06.091Z,-4.30
2022-12-17T20:22:35.006Z,-4.50
2022-12-17T20:25:07.999Z,-4.70
2022-12-17T20:27:36.969Z,-4.80
2022-12-17T20:30:07.186Z,-4.80
2022-12-17T20:32:36.236Z,-4.90
2022-12-17T20:35:07.386Z,-5.00
2022-12-17T20:37:36.324Z,-5.10
2022-12-17T20:40:06.179Z,-5.10
2022-12-17T20:42:36.333Z,-5.20
2022-12-17T20:45:06.345Z,-5.20
2022-12-17T20:47:35.201Z,-5.30
2022-12-17T20:50:05.728Z,-5.40
2022-12-17T20:52:34.651Z,-5.50
2022-12-17T20:55:03.527Z,-5.50
2022-12-17T20:57:33.000Z,-5.50
2022-12-17T21:00:01.743Z,-5.60
2022-12-17T21:02:30.804Z,-5.50
2022-12-17T21:05:00.400Z,-5.50
2022-12-17T21:07:30.569Z,-5.60
2022-12-17T21:09:59.499Z,-5.60
2022-12-17T21:12:49.618Z,-5.60
2022-12-17T21:15:19.199Z,-5.70
2022-12-17T21:17:48.178Z,-5.70
2022-12-17T21:20:17.439Z,-5.70
2022-12-17T21:22:48.241Z,-5.80
2022-12-17T21:25:17.036Z,-5.80
2022-12-17T21:27:45.899Z,-5.80
2022-12-17T21:30:18.027Z,-5.80
2022-12-17T21:32:46.858Z,-5.90
2022-12-17T21:35:17.938Z,-6.00
2022-12-17T21:37:48.968Z,-6.00
2022-12-17T21:40:18.037Z,-6.10
2022-12-17T21:43:05.418Z,-6.10
2022-12-17T21:45:38.750Z,-6.10
2022-12-17T21:48:13.471Z,-6.10
2022-12-17T21:50:45.919Z,-6.10
2022-12-17T21:53:16.894Z,-6.10
2022-12-17T21:55:46.251Z,-6.10
2022-12-17T21:58:16.371Z,-6.10
2022-12-17T22:00:45.329Z,-6.20
2022-12-17T22:03:14.218Z,-6.20
2022-12-17T22:05:43.549Z,-6.20
2022-12-17T22:08:13.829Z,-6.30
2022-12-17T22:10:50.149Z,-6.30
2022-12-17T22:13:36.671Z,-6.30
2022-12-17T22:16:08.317Z,-6.30
2022-12-17T22:18:37.462Z,-6.40
2022-12-17T22:21:06.648Z,-6.40
2022-12-17T22:23:36.179Z,-6.40
2022-12-17T22:26:10.715Z,-6.50
2022-12-17T22:28:40.058Z,-6.60
2022-12-17T22:31:30.793Z,-6.50
2022-12-17T22:35:05.968Z,-6.50
2022-12-17T22:39:18.285Z,-6.60
2022-12-17T22:44:05.243Z,-6.60
2022-12-17T22:44:46.802Z,-6.60
2022-12-17T22:45:34.683Z,-6.60
2022-12-17T22:48:03.217Z,-6.60
2022-12-17T22:50:34.791Z,-6.70
2022-12-17T22:53:13.178Z,-6.70
2022-12-17T22:55:42.133Z,-6.70
2022-12-17T22:58:12.408Z,-6.80
2022-12-17T23:00:40.908Z,-6.80
2022-12-17T23:03:09.591Z,-6.80
2022-12-17T23:05:38.304Z,-6.80
2022-12-17T23:08:07.356Z,-6.80
2022-12-17T23:10:36.150Z,-6.70
2022-12-17T23:13:04.701Z,-6.70
2022-12-17T23:15:36.831Z,-6.60
2022-12-17T23:18:09.033Z,-6.50
2022-12-17T23:20:37.659Z,-6.50
2022-12-17T23:23:06.258Z,-6.50
2022-12-17T23:25:34.887Z,-6.60
2022-12-17T23:28:03.542Z,-6.70
2022-12-17T23:30:33.497Z,-6.70
2022-12-17T23:33:02.071Z,-6.70
2022-12-17T23:35:30.728Z,-6.70
2022-12-17T23:37:59.286Z,-6.80
2022-12-17T23:40:27.928Z,-6.90
2022-12-17T23:42:57.540Z,-6.80
2022-12-17T23:45:26.026Z,-6.90
2022-12-17T23:47:57.567Z,-6.90
2022-12-17T23:50:26.070Z,-6.90
2022-12-17T23:52:54.567Z,-6.90
2022-12-17T23:55:23.046Z,-6.90
2022-12-17T23:57:55.887Z,-6.90
